Time;durP1;ratioP1;P1;durP2;ratioP2;P2;SDS_P1;SDS_P2;PMS_P1;PMS_P2;Temp;Humidity;BMP_temperature;BMP_pressure;BME280_temperature;BME280_humidity;BME280_pressure;Samples;Min_cycle;Max_cycle;Signal;HPM_P1;HPM_P2
2022/10/26 00:00:22;;;;;;;;;;;16.20;99.90;;;;;;5060751;28;19916;-61
2022/10/26 00:02:47;;;;;;;;;;;16.20;99.90;;;;;;5061218;28;19909;-61
2022/10/26 00:05:13;;;;;;;;;;;16.20;99.90;;;;;;5060753;28;19915;-61
2022/10/26 00:07:38;;;;;;;;;;;16.20;99.90;;;;;;5059722;28;19925;-61
2022/10/26 00:10:04;;;;;;;;;;;16.10;99.90;;;;;;5059681;28;20388;-61
2022/10/26 00:12:30;;;;;;;;;;;16.10;99.90;;;;;;5059600;28;19924;-61
2022/10/26 00:14:55;;;;;;;;;;;16.20;99.90;;;;;;5059325;28;20011;-61
2022/10/26 00:17:21;;;;;;;;;;;16.10;99.90;;;;;;5059468;28;19975;-61
2022/10/26 00:19:46;;;;;;;;;;;16.10;99.90;;;;;;5059370;28;19917;-61
2022/10/26 00:22:12;;;;;;;;;;;16.10;99.90;;;;;;5059453;28;19972;-61
2022/10/26 00:24:37;;;;;;;;;;;16.10;99.90;;;;;;5059050;28;19908;-61
2022/10/26 00:27:03;;;;;;;;;;;16.00;99.90;;;;;;5059572;28;20288;-62
2022/10/26 00:29:29;;;;;;;;;;;16.00;99.90;;;;;;5059359;28;19963;-61
2022/10/26 00:31:54;;;;;;;;;;;16.00;99.90;;;;;;5059150;28;19908;-61
2022/10/26 00:34:20;;;;;;;;;;;16.00;99.90;;;;;;5059378;28;20365;-61
2022/10/26 00:36:45;;;;;;;;;;;16.00;99.90;;;;;;5059340;28;19909;-61
2022/10/26 00:39:12;;;;;;;;;;;16.00;99.90;;;;;;5058958;28;19955;-61
2022/10/26 00:41:37;;;;;;;;;;;16.00;99.90;;;;;;5058993;28;19927;-62
2022/10/26 00:44:21;;;;;;;;;;;16.10;99.90;;;;;;5059107;28;19976;-61
2022/10/26 00:46:47;;;;;;;;;;;16.00;99.90;;;;;;5057665;28;19962;-61
2022/10/26 00:49:15;;;;;;;;;;;16.10;99.90;;;;;;5059168;28;19913;-61
2022/10/26 00:51:43;;;;;;;;;;;16.10;99.90;;;;;;5058809;28;20368;-61
2022/10/26 00:54:12;;;;;;;;;;;16.20;99.90;;;;;;5058702;28;20294;-61
2022/10/26 00:56:38;;;;;;;;;;;16.20;99.90;;;;;;5058708;28;20338;-61
2022/10/26 00:59:05;;;;;;;;;;;16.20;99.90;;;;;;5059021;28;19952;-61
2022/10/26 01:01:32;;;;;;;;;;;16.20;99.90;;;;;;5058915;28;19916;-62
2022/10/26 01:03:58;;;;;;;;;;;16.30;99.90;;;;;;5058650;28;19916;-61
2022/10/26 01:06:24;;;;;;;;;;;16.30;99.90;;;;;;4990423;28;1977640;-62
2022/10/26 01:08:49;;;;;;;;;;;16.30;99.90;;;;;;5059635;28;19920;-62
2022/10/26 01:11:15;;;;;;;;;;;16.30;99.90;;;;;;5059739;28;19950;-61
2022/10/26 01:13:42;;;;;;;;;;;16.30;99.90;;;;;;5059482;28;19909;-61
2022/10/26 01:16:26;;;;;;;;;;;16.30;99.90;;;;;;5059922;28;19909;-61
2022/10/26 01:18:58;;;;;;;;;;;16.40;99.90;;;;;;5059398;28;19916;-62
2022/10/26 01:21:23;;;;;;;;;;;16.40;99.90;;;;;;5059364;28;19920;-61
2022/10/26 01:24:08;;;;;;;;;;;16.40;99.90;;;;;;5059450;28;19909;-61
2022/10/26 01:26:52;;;;;;;;;;;16.40;99.90;;;;;;5059466;28;19948;-61
2022/10/26 01:29:36;;;;;;;;;;;16.50;99.90;;;;;;5059379;28;20473;-61
2022/10/26 01:32:13;;;;;;;;;;;16.50;99.90;;;;;;5059198;28;19915;-61
2022/10/26 01:35:07;;;;;;;;;;;16.50;99.90;;;;;;5058737;28;20035;-61
2022/10/26 01:37:36;;;;;;;;;;;16.50;99.90;;;;;;5058231;28;19909;-61
2022/10/26 01:40:05;;;;;;;;;;;16.60;99.90;;;;;;5059440;28;19915;-62
2022/10/26 01:42:31;;;;;;;;;;;16.60;99.90;;;;;;5059096;28;19909;-61
2022/10/26 01:45:00;;;;;;;;;;;16.60;99.90;;;;;;5059136;28;19932;-61
2022/10/26 01:47:27;;;;;;;;;;;16.60;99.90;;;;;;5059057;28;19909;-62
2022/10/26 01:49:55;;;;;;;;;;;16.60;99.90;;;;;;5059114;28;19909;-61
2022/10/26 01:52:21;;;;;;;;;;;16.50;99.90;;;;;;5058734;28;20287;-61
2022/10/26 01:54:47;;;;;;;;;;;16.50;99.90;;;;;;5059135;28;19917;-61
2022/10/26 01:57:14;;;;;;;;;;;16.50;99.90;;;;;;5058642;28;19963;-61
2022/10/26 01:59:40;;;;;;;;;;;16.50;99.90;;;;;;5058762;28;19909;-61
2022/10/26 02:02:18;;;;;;;;;;;16.50;99.90;;;;;;5058779;28;20311;-62
2022/10/26 02:05:02;;;;;;;;;;;16.40;99.90;;;;;;5058533;28;19916;-62
2022/10/26 02:07:28;;;;;;;;;;;16.40;99.90;;;;;;5058343;28;19927;-61
2022/10/26 02:10:12;;;;;;;;;;;16.30;99.90;;;;;;5058361;28;19913;-61
2022/10/26 02:12:44;;;;;;;;;;;16.30;99.90;;;;;;5058690;28;19958;-61
2022/10/26 02:15:21;;;;;;;;;;;16.30;99.90;;;;;;5058825;28;19920;-62
2022/10/26 02:18:10;;;;;;;;;;;16.30;99.90;;;;;;5058503;28;19967;-61
2022/10/26 02:20:39;;;;;;;;;;;16.20;99.90;;;;;;5057712;28;19913;-61
2022/10/26 02:23:06;;;;;;;;;;;16.20;99.90;;;;;;5058506;28;20284;-61
2022/10/26 02:25:35;;;;;;;;;;;16.20;99.90;;;;;;5058185;28;19908;-61
2022/10/26 02:28:22;;;;;;;;;;;16.30;99.90;;;;;;5058351;28;20280;-61
2022/10/26 02:30:49;;;;;;;;;;;16.30;99.90;;;;;;5058107;28;19908;-61
2022/10/26 02:33:16;;;;;;;;;;;16.30;99.90;;;;;;5058015;28;19932;-62
2022/10/26 02:35:45;;;;;;;;;;;16.40;99.90;;;;;;5058244;28;19956;-62
2022/10/26 02:38:11;;;;;;;;;;;16.40;99.90;;;;;;5058004;28;19909;-61
2022/10/26 02:40:37;;;;;;;;;;;16.50;99.90;;;;;;5057781;28;19944;-61
2022/10/26 02:43:05;;;;;;;;;;;16.50;99.90;;;;;;5056609;28;19955;-61
2022/10/26 02:45:33;;;;;;;;;;;16.50;99.90;;;;;;5058329;28;19915;-61
2022/10/26 02:47:59;;;;;;;;;;;16.60;99.90;;;;;;5057751;28;19909;-62
2022/10/26 02:50:31;;;;;;;;;;;16.60;99.90;;;;;;5057724;28;19909;-62
2022/10/26 02:53:09;;;;;;;;;;;16.60;99.90;;;;;;5057680;28;19951;-62
2022/10/26 02:55:45;;;;;;;;;;;16.70;99.90;;;;;;5057972;28;20011;-62
2022/10/26 02:58:13;;;;;;;;;;;16.70;99.90;;;;;;5057742;28;19909;-62
2022/10/26 03:00:39;;;;;;;;;;;16.70;99.90;;;;;;5058180;28;19920;-61
2022/10/26 03:03:05;;;;;;;;;;;16.70;99.90;;;;;;5057777;28;19909;-62
2022/10/26 03:05:31;;;;;;;;;;;16.80;99.90;;;;;;5056303;28;19913;-62
2022/10/26 03:07:57;;;;;;;;;;;16.80;99.90;;;;;;5057510;28;19975;-62
2022/10/26 03:10:23;;;;;;;;;;;16.80;99.90;;;;;;5057659;28;19959;-61
2022/10/26 03:12:49;;;;;;;;;;;16.80;99.90;;;;;;5057797;28;19913;-62
2022/10/26 03:15:14;;;;;;;;;;;16.80;99.90;;;;;;5057954;28;19913;-61
2022/10/26 03:17:40;;;;;;;;;;;16.70;99.90;;;;;;5057903;28;19909;-61
2022/10/26 03:20:06;;;;;;;;;;;16.70;99.90;;;;;;5057497;28;19909;-61
2022/10/26 03:22:32;;;;;;;;;;;16.70;99.90;;;;;;5057618;28;19913;-61
2022/10/26 03:24:57;;;;;;;;;;;16.70;99.90;;;;;;5057558;28;19995;-62
2022/10/26 03:27:23;;;;;;;;;;;16.70;99.90;;;;;;5057813;28;19954;-61
2022/10/26 03:29:48;;;;;;;;;;;16.70;99.90;;;;;;5057428;28;20284;-61
2022/10/26 03:32:14;;;;;;;;;;;16.70;99.90;;;;;;5057509;28;20007;-61
2022/10/26 03:34:40;;;;;;;;;;;16.70;99.90;;;;;;5057372;28;20372;-61
2022/10/26 03:37:05;;;;;;;;;;;16.60;99.90;;;;;;5057705;28;19909;-61
2022/10/26 03:39:31;;;;;;;;;;;16.60;99.90;;;;;;5057650;28;19909;-61
2022/10/26 03:41:56;;;;;;;;;;;16.60;99.90;;;;;;5057558;28;19909;-61
2022/10/26 03:44:22;;;;;;;;;;;16.60;99.90;;;;;;5057370;28;20383;-61
2022/10/26 03:46:48;;;;;;;;;;;16.70;99.90;;;;;;5057504;28;19955;-61
2022/10/26 03:49:13;;;;;;;;;;;16.70;99.90;;;;;;5057275;28;20387;-61
2022/10/26 03:51:39;;;;;;;;;;;16.70;99.90;;;;;;5057257;28;19909;-61
2022/10/26 03:54:04;;;;;;;;;;;16.70;99.90;;;;;;5057426;28;19944;-62
2022/10/26 03:56:30;;;;;;;;;;;16.60;99.90;;;;;;5057197;28;19975;-61
2022/10/26 03:58:56;;;;;;;;;;;16.60;99.90;;;;;;5058634;28;19962;-62
2022/10/26 04:01:21;;;;;;;;;;;16.60;99.90;;;;;;5061061;28;19909;-62
2022/10/26 04:03:47;;;;;;;;;;;16.60;99.90;;;;;;5061164;28;19985;-61
2022/10/26 04:06:13;;;;;;;;;;;16.60;99.90;;;;;;5060818;28;19909;-62
2022/10/26 04:08:38;;;;;;;;;;;16.60;99.90;;;;;;5061011;28;19924;-62
2022/10/26 04:11:04;;;;;;;;;;;16.70;99.90;;;;;;5060895;28;19950;-61
2022/10/26 04:13:29;;;;;;;;;;;16.60;99.90;;;;;;5060688;28;20010;-61
2022/10/26 04:15:55;;;;;;;;;;;16.70;99.90;;;;;;5060563;28;20066;-61
2022/10/26 04:18:21;;;;;;;;;;;16.70;99.90;;;;;;5060660;28;19916;-61
2022/10/26 04:20:46;;;;;;;;;;;16.70;99.90;;;;;;5060739;28;19963;-62
2022/10/26 04:23:13;;;;;;;;;;;16.80;99.90;;;;;;5060957;28;19909;-61
2022/10/26 04:25:39;;;;;;;;;;;16.80;99.90;;;;;;5060444;28;19917;-61
2022/10/26 04:28:05;;;;;;;;;;;16.80;99.90;;;;;;5060180;28;19909;-61
2022/10/26 04:30:31;;;;;;;;;;;16.80;99.90;;;;;;5060522;28;19991;-61
2022/10/26 04:32:57;;;;;;;;;;;16.90;99.90;;;;;;5060484;28;19909;-61
2022/10/26 04:35:22;;;;;;;;;;;16.90;99.90;;;;;;5060377;28;19913;-61
2022/10/26 04:37:48;;;;;;;;;;;16.90;99.90;;;;;;5058921;28;19913;-62
2022/10/26 04:40:14;;;;;;;;;;;16.90;99.90;;;;;;5060435;28;19916;-61
2022/10/26 04:42:43;;;;;;;;;;;16.90;99.90;;;;;;5060105;28;20017;-61
2022/10/26 04:45:09;;;;;;;;;;;17.00;99.90;;;;;;5060532;28;19917;-61
2022/10/26 04:47:35;;;;;;;;;;;17.00;99.90;;;;;;5059998;28;19920;-61
2022/10/26 04:50:00;;;;;;;;;;;17.10;99.90;;;;;;5060028;28;19909;-61
2022/10/26 04:52:26;;;;;;;;;;;17.10;99.90;;;;;;5060689;28;19996;-62
2022/10/26 04:54:51;;;;;;;;;;;17.10;99.90;;;;;;5059602;28;19919;-62
2022/10/26 04:57:17;;;;;;;;;;;17.10;99.90;;;;;;5059855;28;19966;-62
2022/10/26 04:59:43;;;;;;;;;;;17.10;99.90;;;;;;5059949;28;19909;-61
2022/10/26 05:02:08;;;;;;;;;;;17.10;99.90;;;;;;5059958;28;20011;-61
2022/10/26 05:04:34;;;;;;;;;;;17.10;99.90;;;;;;5059755;28;19915;-61
2022/10/26 05:06:59;;;;;;;;;;;17.10;99.90;;;;;;5059783;28;19927;-62
2022/10/26 05:09:25;;;;;;;;;;;17.20;99.90;;;;;;5059862;28;20296;-62
2022/10/26 05:11:50;;;;;;;;;;;17.20;99.90;;;;;;5058609;28;19916;-61
2022/10/26 05:14:16;;;;;;;;;;;17.10;99.90;;;;;;5059791;28;19948;-61
2022/10/26 05:16:43;;;;;;;;;;;17.00;99.90;;;;;;5058482;28;19981;-62
2022/10/26 05:19:09;;;;;;;;;;;17.00;99.90;;;;;;5059385;28;20391;-62
2022/10/26 05:21:35;;;;;;;;;;;17.00;99.90;;;;;;5059570;28;19936;-61
2022/10/26 05:24:00;;;;;;;;;;;17.00;99.90;;;;;;5059411;28;20396;-62
2022/10/26 05:26:26;;;;;;;;;;;17.00;99.90;;;;;;5059359;28;20007;-62
2022/10/26 05:28:52;;;;;;;;;;;17.00;99.90;;;;;;5059194;28;19992;-61
2022/10/26 05:31:18;;;;;;;;;;;17.00;99.90;;;;;;5059905;28;19974;-62
2022/10/26 05:33:47;;;;;;;;;;;17.00;99.90;;;;;;5059673;28;19959;-61
2022/10/26 05:36:12;;;;;;;;;;;16.90;99.90;;;;;;5059789;28;19958;-61
2022/10/26 05:38:38;;;;;;;;;;;17.00;99.90;;;;;;5059489;28;19909;-61
2022/10/26 05:41:03;;;;;;;;;;;17.00;99.90;;;;;;5059452;28;19985;-61
2022/10/26 05:43:29;;;;;;;;;;;17.10;99.90;;;;;;5059410;28;19992;-62
2022/10/26 05:45:55;;;;;;;;;;;17.10;99.90;;;;;;5059094;28;20361;-61
2022/10/26 05:48:20;;;;;;;;;;;17.10;99.90;;;;;;5059237;28;19916;-61
2022/10/26 05:50:46;;;;;;;;;;;17.10;99.90;;;;;;5058924;28;19932;-61
2022/10/26 05:53:12;;;;;;;;;;;17.10;99.90;;;;;;5058792;28;19916;-61
2022/10/26 05:55:38;;;;;;;;;;;17.10;99.90;;;;;;5058842;28;19920;-61
2022/10/26 05:58:08;;;;;;;;;;;17.10;99.90;;;;;;5058816;28;19912;-61
2022/10/26 06:00:33;;;;;;;;;;;17.10;99.90;;;;;;5058643;28;20253;-61
2022/10/26 06:03:18;;;;;;;;;;;17.10;99.90;;;;;;5058601;28;19913;-62
2022/10/26 06:05:51;;;;;;;;;;;17.10;99.90;;;;;;5058994;28;19958;-61
2022/10/26 06:08:17;;;;;;;;;;;17.20;99.90;;;;;;5058507;28;19928;-61
2022/10/26 06:10:42;;;;;;;;;;;17.20;99.90;;;;;;5059131;28;20360;-61
2022/10/26 06:13:08;;;;;;;;;;;17.20;99.90;;;;;;5058707;28;20319;-61
2022/10/26 06:15:41;;;;;;;;;;;17.20;99.90;;;;;;5058670;28;19913;-61
2022/10/26 06:18:06;;;;;;;;;;;17.20;99.90;;;;;;5058848;28;19916;-61
2022/10/26 06:20:55;;;;;;;;;;;17.20;99.90;;;;;;5058545;28;19909;-61
2022/10/26 06:23:38;;;;;;;;;;;17.10;99.90;;;;;;5057612;28;19915;-61
2022/10/26 06:26:11;;;;;;;;;;;17.20;99.90;;;;;;5058236;28;20315;-61
2022/10/26 06:28:53;;;;;;;;;;;17.20;99.90;;;;;;5058380;28;19913;-62
2022/10/26 06:31:19;;;;;;;;;;;17.10;99.90;;;;;;5058541;28;19913;-61
2022/10/26 06:33:44;;;;;;;;;;;17.10;99.90;;;;;;5058323;28;19909;-62
2022/10/26 06:36:10;;;;;;;;;;;17.20;99.90;;;;;;5058243;28;20285;-61
2022/10/26 06:38:38;;;;;;;;;;;17.20;99.90;;;;;;5058291;28;20284;-61
2022/10/26 06:41:04;;;;;;;;;;;17.20;99.90;;;;;;5056957;28;19996;-61
2022/10/26 06:43:31;;;;;;;;;;;17.10;99.90;;;;;;5058412;28;20369;-62
2022/10/26 06:46:05;;;;;;;;;;;17.10;99.90;;;;;;5058110;28;19909;-62
2022/10/26 06:48:34;;;;;;;;;;;17.20;99.90;;;;;;5058366;28;19909;-62
2022/10/26 06:50:59;;;;;;;;;;;17.20;99.90;;;;;;5058094;28;19913;-62
2022/10/26 06:53:32;;;;;;;;;;;17.20;99.90;;;;;;5058254;28;19909;-61
2022/10/26 06:55:58;;;;;;;;;;;17.20;99.90;;;;;;5057910;28;19912;-61
2022/10/26 06:58:26;;;;;;;;;;;17.20;99.90;;;;;;5058520;28;19913;-61
2022/10/26 07:00:53;;;;;;;;;;;17.20;99.90;;;;;;5058018;28;19937;-62
2022/10/26 07:03:19;;;;;;;;;;;17.10;99.90;;;;;;5058470;28;19916;-61
2022/10/26 07:05:44;;;;;;;;;;;17.00;99.90;;;;;;5058055;28;20335;-62
2022/10/26 07:08:10;;;;;;;;;;;16.90;99.90;;;;;;5057670;28;19984;-62
2022/10/26 07:10:38;;;;;;;;;;;16.80;99.90;;;;;;5057872;28;20386;-62
2022/10/26 07:13:06;;;;;;;;;;;16.80;99.90;;;;;;5058056;28;19908;-62
2022/10/26 07:15:32;;;;;;;;;;;16.80;99.90;;;;;;5057792;28;19912;-61
2022/10/26 07:17:58;;;;;;;;;;;16.80;99.90;;;;;;5058179;28;19909;-62
2022/10/26 07:20:23;;;;;;;;;;;16.80;99.90;;;;;;5058031;28;19932;-62
2022/10/26 07:22:53;;;;;;;;;;;16.70;99.90;;;;;;5058053;28;20368;-62
2022/10/26 07:25:19;;;;;;;;;;;16.70;99.90;;;;;;5057686;28;20376;-62
2022/10/26 07:27:44;;;;;;;;;;;16.70;99.90;;;;;;5057806;28;19971;-62
2022/10/26 07:30:10;;;;;;;;;;;16.70;99.90;;;;;;5057917;28;19916;-62
2022/10/26 07:32:36;;;;;;;;;;;16.70;99.90;;;;;;5058252;28;19912;-62
2022/10/26 07:35:01;;;;;;;;;;;16.70;99.90;;;;;;5060714;28;19913;-62
2022/10/26 07:37:27;;;;;;;;;;;16.70;99.90;;;;;;5061842;28;19913;-62
2022/10/26 07:39:53;;;;;;;;;;;16.70;99.90;;;;;;5061952;28;20298;-62
2022/10/26 07:42:18;;;;;;;;;;;16.80;99.90;;;;;;5061756;28;19913;-61
2022/10/26 07:44:44;;;;;;;;;;;16.90;99.90;;;;;;5061436;28;19909;-62
2022/10/26 07:47:09;;;;;;;;;;;16.90;99.90;;;;;;5061699;28;19909;-61
2022/10/26 07:49:35;;;;;;;;;;;17.00;99.90;;;;;;5061385;28;19912;-62
2022/10/26 07:52:00;;;;;;;;;;;17.00;99.90;;;;;;5061575;28;19909;-61
2022/10/26 07:54:26;;;;;;;;;;;17.00;99.90;;;;;;5061104;28;19917;-61
2022/10/26 07:56:52;;;;;;;;;;;17.00;99.90;;;;;;5061259;28;20043;-62
2022/10/26 07:59:17;;;;;;;;;;;17.10;99.90;;;;;;5061532;28;19909;-62
2022/10/26 08:01:43;;;;;;;;;;;17.10;99.90;;;;;;5061375;28;19913;-61
2022/10/26 08:04:09;;;;;;;;;;;17.00;99.90;;;;;;5061115;28;19913;-62
2022/10/26 08:06:34;;;;;;;;;;;17.00;99.90;;;;;;5061023;28;19982;-61
2022/10/26 08:09:00;;;;;;;;;;;17.10;99.90;;;;;;5061328;28;20287;-61
2022/10/26 08:11:26;;;;;;;;;;;17.00;99.90;;;;;;5060979;28;20593;-61
2022/10/26 08:13:52;;;;;;;;;;;17.10;99.90;;;;;;5061245;28;19944;-61
2022/10/26 08:16:18;;;;;;;;;;;17.00;99.90;;;;;;5060720;28;20403;-61
2022/10/26 08:18:46;;;;;;;;;;;17.00;99.90;;;;;;5061011;28;19917;-62
2022/10/26 08:21:12;;;;;;;;;;;17.10;99.90;;;;;;5060708;28;20371;-61
2022/10/26 08:23:37;;;;;;;;;;;17.10;99.90;;;;;;5060561;28;20000;-61
2022/10/26 08:26:03;;;;;;;;;;;17.10;99.90;;;;;;5060716;28;20003;-62
2022/10/26 08:28:29;;;;;;;;;;;17.10;99.90;;;;;;5060503;28;20395;-62
2022/10/26 08:30:55;;;;;;;;;;;17.20;99.90;;;;;;5060843;28;19908;-61
2022/10/26 08:33:21;;;;;;;;;;;17.20;99.90;;;;;;5060572;28;20396;-62
2022/10/26 08:35:47;;;;;;;;;;;17.30;99.90;;;;;;5060503;28;19913;-61
2022/10/26 08:38:12;;;;;;;;;;;17.30;99.90;;;;;;5060998;28;19999;-61
2022/10/26 08:40:40;;;;;;;;;;;17.40;99.90;;;;;;5060391;28;19995;-61
2022/10/26 08:43:21;;;;;;;;;;;17.40;99.90;;;;;;5060453;28;19916;-61
2022/10/26 08:45:59;;;;;;;;;;;17.50;99.90;;;;;;5060138;28;19909;-61
2022/10/26 08:48:32;;;;;;;;;;;17.40;99.90;;;;;;5060307;28;19909;-61
2022/10/26 08:51:05;;;;;;;;;;;17.40;99.90;;;;;;5060601;28;20332;-61
2022/10/26 08:53:39;;;;;;;;;;;17.50;99.90;;;;;;5060153;28;19959;-62
2022/10/26 08:56:09;;;;;;;;;;;17.40;99.90;;;;;;5060247;28;20800;-62
2022/10/26 08:58:40;;;;;;;;;;;17.30;99.90;;;;;;5060304;28;19919;-61
2022/10/26 09:01:07;;;;;;;;;;;17.30;99.90;;;;;;5060190;28;19950;-62
2022/10/26 09:03:32;;;;;;;;;;;17.40;99.90;;;;;;5060078;28;19968;-61
2022/10/26 09:06:04;;;;;;;;;;;17.50;99.90;;;;;;5060040;28;20391;-62
2022/10/26 09:08:36;;;;;;;;;;;17.40;99.90;;;;;;5059799;28;20369;-61
2022/10/26 09:11:07;;;;;;;;;;;17.40;99.90;;;;;;5060301;28;19981;-61
2022/10/26 09:13:47;;;;;;;;;;;17.40;99.90;;;;;;5060016;28;19995;-62
2022/10/26 09:16:21;;;;;;;;;;;17.40;99.90;;;;;;5059943;28;19999;-62
2022/10/26 09:19:00;;;;;;;;;;;17.40;99.90;;;;;;5059934;28;20017;-61
2022/10/26 09:21:25;;;;;;;;;;;17.50;99.90;;;;;;5059497;28;19958;-62
2022/10/26 09:23:55;;;;;;;;;;;17.60;99.90;;;;;;5059786;28;19916;-62
2022/10/26 09:26:27;;;;;;;;;;;17.60;99.90;;;;;;5059546;28;19908;-61
2022/10/26 09:28:54;;;;;;;;;;;17.60;99.90;;;;;;5059790;28;19990;-61
2022/10/26 09:31:20;;;;;;;;;;;17.60;99.90;;;;;;5059388;28;19908;-61
2022/10/26 09:33:46;;;;;;;;;;;17.70;99.90;;;;;;5059617;28;20360;-61
2022/10/26 09:36:17;;;;;;;;;;;17.70;99.90;;;;;;5059322;28;19913;-61
2022/10/26 09:38:59;;;;;;;;;;;17.80;99.90;;;;;;5059566;28;19909;-62
2022/10/26 09:41:44;;;;;;;;;;;17.80;99.90;;;;;;5059413;28;19916;-62
2022/10/26 09:44:16;;;;;;;;;;;17.80;99.90;;;;;;5059182;28;19971;-62
2022/10/26 09:46:51;;;;;;;;;;;17.80;99.90;;;;;;5059397;28;19909;-62
2022/10/26 09:49:19;;;;;;;;;;;17.90;99.90;;;;;;5059102;28;19909;-61
2022/10/26 09:51:46;;;;;;;;;;;18.00;99.90;;;;;;5059330;28;19916;-61
2022/10/26 09:54:16;;;;;;;;;;;18.00;99.90;;;;;;5058971;28;19938;-62
2022/10/26 09:56:44;;;;;;;;;;;18.00;99.90;;;;;;5058527;28;19909;-62
2022/10/26 09:59:09;;;;;;;;;;;18.10;99.90;;;;;;5058878;28;20326;-62
2022/10/26 10:01:35;;;;;;;;;;;18.00;99.90;;;;;;5058991;28;19920;-61
2022/10/26 10:04:16;;;;;;;;;;;18.00;99.90;;;;;;5059483;28;19909;-61
2022/10/26 10:06:43;;;;;;;;;;;18.10;99.90;;;;;;5058617;28;19928;-61
2022/10/26 10:09:12;;;;;;;;;;;18.40;99.90;;;;;;5058776;28;19935;-61
2022/10/26 10:11:42;;;;;;;;;;;18.60;99.50;;;;;;5058787;28;19916;-61
2022/10/26 10:14:12;;;;;;;;;;;18.40;99.80;;;;;;5058968;28;19916;-61
2022/10/26 10:16:38;;;;;;;;;;;18.50;99.60;;;;;;5058721;28;19969;-62
2022/10/26 10:19:04;;;;;;;;;;;18.50;99.90;;;;;;5058621;28;19999;-62
2022/10/26 10:21:36;;;;;;;;;;;18.60;99.90;;;;;;5058756;28;19972;-62
2022/10/26 10:24:19;;;;;;;;;;;18.60;99.90;;;;;;5058502;28;20284;-62
2022/10/26 10:26:55;;;;;;;;;;;18.50;99.80;;;;;;5058730;28;19916;-62
2022/10/26 10:29:23;;;;;;;;;;;18.50;99.90;;;;;;5058391;28;19913;-61
2022/10/26 10:31:54;;;;;;;;;;;18.80;99.50;;;;;;5058608;28;19912;-62
2022/10/26 10:34:21;;;;;;;;;;;19.00;99.40;;;;;;5058254;28;19909;-62
2022/10/26 10:36:46;;;;;;;;;;;19.40;99.20;;;;;;5058404;28;19931;-62
2022/10/26 10:39:33;;;;;;;;;;;19.80;98.60;;;;;;5058230;28;20276;-62
2022/10/26 10:41:59;;;;;;;;;;;19.80;97.00;;;;;;5058655;28;19908;-62
2022/10/26 10:44:28;;;;;;;;;;;20.00;97.60;;;;;;5058338;28;19912;-62
2022/10/26 10:47:06;;;;;;;;;;;19.90;97.20;;;;;;5058099;28;19909;-62
2022/10/26 10:49:32;;;;;;;;;;;19.60;97.00;;;;;;5058247;28;19909;-62
2022/10/26 10:51:59;;;;;;;;;;;20.00;97.20;;;;;;5058300;28;19958;-62
2022/10/26 10:54:30;;;;;;;;;;;20.50;96.80;;;;;;5058064;28;19913;-62
2022/10/26 10:57:07;;;;;;;;;;;20.90;97.00;;;;;;5058069;28;19916;-63
2022/10/26 10:59:39;;;;;;;;;;;21.20;94.50;;;;;;5058500;28;19932;-63
2022/10/26 11:02:05;;;;;;;;;;;21.00;93.60;;;;;;5057957;28;19909;-62
2022/10/26 11:04:32;;;;;;;;;;;21.00;94.40;;;;;;5057979;28;19923;-62
2022/10/26 11:06:59;;;;;;;;;;;20.90;94.90;;;;;;5057897;28;19928;-62
2022/10/26 11:09:30;;;;;;;;;;;21.00;94.40;;;;;;5061892;28;19931;-63
2022/10/26 11:11:59;;;;;;;;;;;21.40;95.70;;;;;;5062269;28;19908;-62
2022/10/26 11:14:24;;;;;;;;;;;22.10;94.80;;;;;;5062148;28;19913;-63
2022/10/26 11:16:50;;;;;;;;;;;22.40;91.80;;;;;;5062074;28;19909;-63
2022/10/26 11:19:18;;;;;;;;;;;21.90;93.50;;;;;;5062000;28;19909;-62
2022/10/26 11:21:46;;;;;;;;;;;22.20;93.10;;;;;;5061922;28;19909;-62
2022/10/26 11:24:14;;;;;;;;;;;22.40;92.90;;;;;;5061928;28;19987;-62
2022/10/26 11:26:58;;;;;;;;;;;22.10;90.90;;;;;;5062019;28;19909;-63
2022/10/26 11:29:34;;;;;;;;;;;22.10;91.50;;;;;;5061971;28;19959;-63
2022/10/26 11:32:05;;;;;;;;;;;21.50;91.90;;;;;;5061885;28;19920;-62
2022/10/26 11:34:39;;;;;;;;;;;21.30;93.50;;;;;;5061775;28;19920;-62
2022/10/26 11:37:20;;;;;;;;;;;21.20;93.90;;;;;;5061602;28;19909;-62
2022/10/26 11:40:00;;;;;;;;;;;21.30;92.70;;;;;;5061679;28;19909;-62
2022/10/26 11:42:36;;;;;;;;;;;21.70;93.90;;;;;;5062001;28;20311;-62
2022/10/26 11:45:08;;;;;;;;;;;21.80;94.00;;;;;;5061446;28;19915;-63
2022/10/26 11:47:39;;;;;;;;;;;22.00;93.40;;;;;;5061630;28;19932;-63
2022/10/26 11:50:05;;;;;;;;;;;22.00;91.10;;;;;;5061399;28;19909;-63
2022/10/26 11:52:36;;;;;;;;;;;22.10;91.20;;;;;;5061447;28;19955;-62
2022/10/26 11:55:05;;;;;;;;;;;22.20;93.40;;;;;;5061272;28;19913;-63
2022/10/26 11:57:32;;;;;;;;;;;22.00;90.90;;;;;;5061511;28;19909;-63
2022/10/26 12:00:02;;;;;;;;;;;22.10;90.50;;;;;;5061401;28;19909;-63
2022/10/26 12:02:28;;;;;;;;;;;22.30;92.30;;;;;;5061331;28;19962;-63
2022/10/26 12:05:01;;;;;;;;;;;22.30;90.40;;;;;;5061134;28;19954;-63
2022/10/26 12:07:31;;;;;;;;;;;22.50;90.40;;;;;;5060948;28;19920;-63
2022/10/26 12:09:59;;;;;;;;;;;22.90;88.00;;;;;;5061286;28;19916;-63
2022/10/26 12:12:34;;;;;;;;;;;22.80;90.70;;;;;;5061195;28;20326;-63
2022/10/26 12:15:15;;;;;;;;;;;22.70;91.40;;;;;;5060864;28;19917;-62
2022/10/26 12:17:54;;;;;;;;;;;22.10;90.10;;;;;;5060679;28;20288;-62
2022/10/26 12:20:38;;;;;;;;;;;21.80;91.50;;;;;;5060375;28;19959;-62
2022/10/26 12:23:04;;;;;;;;;;;21.90;91.10;;;;;;5060989;28;19963;-62
2022/10/26 12:25:30;;;;;;;;;;;22.40;92.30;;;;;;5060897;28;19909;-63
2022/10/26 12:27:57;;;;;;;;;;;22.60;90.50;;;;;;5060684;28;20493;-63
2022/10/26 12:30:27;;;;;;;;;;;22.90;91.60;;;;;;5060951;28;19999;-63
2022/10/26 12:32:56;;;;;;;;;;;22.70;90.70;;;;;;5061002;28;19945;-63
2022/10/26 12:35:29;;;;;;;;;;;22.60;90.40;;;;;;5060650;28;20383;-62
2022/10/26 12:37:55;;;;;;;;;;;22.30;88.20;;;;;;5060836;28;19916;-62
2022/10/26 12:40:30;;;;;;;;;;;22.20;90.00;;;;;;5060247;28;19909;-62
2022/10/26 12:42:56;;;;;;;;;;;22.30;90.00;;;;;;5060620;28;19909;-62
2022/10/26 12:45:22;;;;;;;;;;;22.20;89.40;;;;;;5060184;28;19951;-62
2022/10/26 12:47:48;;;;;;;;;;;22.10;90.00;;;;;;5059360;28;19916;-62
2022/10/26 12:50:13;;;;;;;;;;;21.80;90.70;;;;;;5060479;28;19908;-62
2022/10/26 12:52:42;;;;;;;;;;;21.30;92.10;;;;;;5060473;28;20356;-62
2022/10/26 12:55:10;;;;;;;;;;;21.00;92.40;;;;;;5060168;28;19920;-62
2022/10/26 12:57:43;;;;;;;;;;;21.00;92.60;;;;;;5060369;28;19944;-62
2022/10/26 13:00:14;;;;;;;;;;;20.90;92.50;;;;;;5060242;28;19913;-62
2022/10/26 13:02:42;;;;;;;;;;;21.00;93.20;;;;;;5060002;28;20257;-62
2022/10/26 13:05:23;;;;;;;;;;;20.90;92.80;;;;;;5060270;28;19913;-62
2022/10/26 13:07:49;;;;;;;;;;;20.70;93.30;;;;;;5059706;28;20004;-62
2022/10/26 13:10:23;;;;;;;;;;;20.90;93.10;;;;;;5058497;28;19916;-62
2022/10/26 13:12:48;;;;;;;;;;;20.80;93.10;;;;;;5059854;28;19909;-62
2022/10/26 13:15:17;;;;;;;;;;;20.80;92.90;;;;;;5059938;28;19913;-62
2022/10/26 13:17:51;;;;;;;;;;;20.70;93.10;;;;;;5059962;28;20265;-62
2022/10/26 13:20:17;;;;;;;;;;;20.80;93.30;;;;;;5059843;28;19909;-62
2022/10/26 13:22:44;;;;;;;;;;;20.90;93.40;;;;;;5059869;28;19909;-62
2022/10/26 13:25:39;;;;;;;;;;;21.10;92.60;;;;;;5059715;28;19912;-62
2022/10/26 13:28:06;;;;;;;;;;;21.10;92.70;;;;;;5059290;28;19908;-62
2022/10/26 13:30:31;;;;;;;;;;;21.10;93.30;;;;;;5059291;28;20333;-62
2022/10/26 13:32:58;;;;;;;;;;;21.30;92.50;;;;;;5058840;28;19948;-62
2022/10/26 13:35:25;;;;;;;;;;;21.50;92.40;;;;;;5059354;28;19935;-62
2022/10/26 13:37:52;;;;;;;;;;;21.40;91.20;;;;;;5059186;28;19909;-62
2022/10/26 13:40:19;;;;;;;;;;;21.40;91.90;;;;;;5059561;28;19996;-62
2022/10/26 13:42:46;;;;;;;;;;;21.50;91.70;;;;;;5059262;28;19909;-62
2022/10/26 13:45:14;;;;;;;;;;;21.80;91.60;;;;;;5059227;28;19972;-62
2022/10/26 13:47:48;;;;;;;;;;;22.00;90.90;;;;;;5059253;28;19912;-62
2022/10/26 13:50:19;;;;;;;;;;;22.00;91.60;;;;;;5059513;28;20364;-62
2022/10/26 13:52:47;;;;;;;;;;;22.10;90.90;;;;;;5059441;28;19908;-62
2022/10/26 13:55:12;;;;;;;;;;;21.90;89.40;;;;;;5059146;28;19912;-62
2022/10/26 13:57:41;;;;;;;;;;;21.60;91.30;;;;;;5059156;28;19916;-62
2022/10/26 14:00:13;;;;;;;;;;;21.50;91.60;;;;;;5058895;28;19958;-62
2022/10/26 14:02:42;;;;;;;;;;;21.60;91.70;;;;;;5058973;28;19962;-62
2022/10/26 14:05:09;;;;;;;;;;;21.20;91.70;;;;;;5058848;28;19917;-62
2022/10/26 14:07:39;;;;;;;;;;;21.10;91.90;;;;;;5058739;28;19975;-62
2022/10/26 14:10:05;;;;;;;;;;;21.20;92.20;;;;;;5059360;28;19966;-62
2022/10/26 14:12:31;;;;;;;;;;;21.40;92.00;;;;;;5058799;28;19910;-62
2022/10/26 14:15:07;;;;;;;;;;;21.50;91.50;;;;;;5058816;28;20015;-62
2022/10/26 14:17:32;;;;;;;;;;;21.30;91.20;;;;;;5058892;28;19908;-62
2022/10/26 14:19:58;;;;;;;;;;;20.60;92.60;;;;;;5058611;28;19959;-62
2022/10/26 14:22:26;;;;;;;;;;;20.40;93.40;;;;;;5058902;28;19909;-62
2022/10/26 14:24:53;;;;;;;;;;;20.30;93.60;;;;;;5058736;28;19945;-62